Time;durP1;ratioP1;P1;durP2;ratioP2;P2;SDS_P1;SDS_P2;PMS_P1;PMS_P2;Temp;Humidity;BMP_temperature;BMP_pressure;BME280_temperature;BME280_humidity;BME280_pressure;Samples;Min_cycle;Max_cycle;Signal;HPM_P1;HPM_P2
2023/05/12 00:02:22;;;;;;;;;;;14.80;95.30;;;15.00;61.75;98393.25;4909000;28;117333;-84
2023/05/12 00:04:49;;;;;;;;;;;14.80;95.30;;;15.02;61.91;98393.72;4906184;28;124089;-86
2023/05/12 00:07:16;;;;;;;;;;;14.80;95.40;;;15.02;62.11;98386.19;4907812;28;123940;-85
2023/05/12 00:09:44;;;;;;;;;;;14.80;95.50;;;15.01;61.86;98384.53;4909802;28;119027;-87
2023/05/12 00:12:20;;;;;;;;;;;14.70;95.40;;;15.03;61.92;98384.19;4908792;28;118979;-83
2023/05/12 00:14:48;;;;;;;;;;;14.80;95.50;;;15.01;62.19;98383.72;4909710;28;123272;-86
2023/05/12 00:17:17;;;;;;;;;;;14.70;95.60;;;15.00;62.35;98382.94;4907618;28;124525;-86
2023/05/12 00:20:02;;;;;;;;;;;14.70;95.70;;;14.93;62.34;98376.34;4910415;28;120501;-85
2023/05/12 00:22:45;;;;;;;;;;;14.70;95.80;;;14.88;62.49;98380.16;4911113;28;119314;-86
2023/05/12 00:25:11;;;;;;;;;;;14.70;95.70;;;14.88;62.40;98379.34;4907248;28;124136;-86
2023/05/12 00:27:43;;;;;;;;;;;14.70;95.70;;;14.89;62.58;98370.69;4907978;28;123774;-86
2023/05/12 00:30:10;;;;;;;;;;;14.70;95.90;;;14.91;62.82;98373.09;4907828;28;119798;-86
2023/05/12 00:32:39;;;;;;;;;;;14.70;95.90;;;14.94;62.52;98369.63;4900421;28;117153;-85
2023/05/12 00:35:09;;;;;;;;;;;14.80;95.90;;;14.97;62.47;98369.72;4908051;28;124182;-85
2023/05/12 00:37:41;;;;;;;;;;;14.70;95.90;;;15.00;62.44;98373.78;4907885;28;124216;-86
2023/05/12 00:40:15;;;;;;;;;;;14.70;95.90;;;15.00;62.36;98371.81;4906380;28;119341;-85
2023/05/12 00:42:42;;;;;;;;;;;14.80;96.00;;;14.99;63.11;98377.69;4910344;28;119290;-85
2023/05/12 00:45:09;;;;;;;;;;;14.70;96.10;;;14.97;62.58;98375.28;4900078;28;124369;-85
2023/05/12 00:47:36;;;;;;;;;;;14.70;96.00;;;14.96;62.88;98376.47;4904814;28;124471;-86
2023/05/12 00:50:04;;;;;;;;;;;13.70;95.60;;;14.97;62.76;98374.50;4907220;28;118644;-86
2023/05/12 00:52:30;;;;;;;;;;;14.70;96.10;;;14.98;62.69;98382.47;4903196;28;118385;-86
2023/05/12 00:55:04;;;;;;;;;;;14.70;96.10;;;15.02;62.76;98374.25;4909314;28;123888;-86
2023/05/12 00:57:30;;;;;;;;;;;14.70;96.10;;;15.01;62.66;98370.63;4909524;28;124089;-86
2023/05/12 00:59:58;;;;;;;;;;;14.80;96.20;;;15.02;62.75;98374.25;4907553;28;119922;-86
2023/05/12 01:02:27;;;;;;;;;;;14.80;96.20;;;15.02;62.78;98380.59;4909445;28;117475;-86
2023/05/12 01:04:53;;;;;;;;;;;14.80;96.20;;;15.00;63.05;98376.56;4908442;28;124258;-86
2023/05/12 01:07:31;;;;;;;;;;;14.90;96.40;;;14.96;63.13;98379.25;4903897;28;123968;-87
2023/05/12 01:10:02;;;;;;;;;;;14.70;96.40;;;14.92;63.36;98375.53;4905345;28;120498;-86
2023/05/12 01:12:34;;;;;;;;;;;14.70;96.50;;;14.88;63.44;98371.81;4911365;28;119733;-85
2023/05/12 01:15:14;;;;;;;;;;;14.70;96.50;;;14.91;63.23;98373.94;4899940;28;124553;-87
2023/05/12 01:17:58;;;;;;;;;;;14.70;96.50;;;14.89;63.13;98367.91;4910274;28;123761;-86
2023/05/12 01:20:29;;;;;;;;;;;14.70;96.50;;;14.88;63.36;98373.78;4908901;28;120035;-86
2023/05/12 01:23:05;;;;;;;;;;;14.70;96.60;;;14.88;63.45;98374.59;4896674;28;117837;-87
2023/05/12 01:26:06;;;;;;;;;;;14.60;96.60;;;14.87;63.39;98373.00;4907076;28;124220;-86
2023/05/12 01:28:36;;;;;;;;;;;14.70;96.60;;;14.82;63.71;98372.44;4895730;28;122798;-86
2023/05/12 01:31:14;;;;;;;;;;;14.60;96.80;;;14.78;63.76;98375.91;4889552;28;118082;-86
2023/05/12 01:33:42;;;;;;;;;;;14.60;96.70;;;14.77;63.81;98365.13;4907526;28;117724;-86
2023/05/12 01:36:43;;;;;;;;;;;14.60;96.70;;;14.72;63.92;98371.78;4895258;28;124237;-86
2023/05/12 01:39:20;;;;;;;;;;;14.60;96.80;;;14.73;64.13;98369.78;4903651;28;124002;-86
2023/05/12 01:42:12;;;;;;;;;;;14.60;96.80;;;14.69;64.12;98369.66;4901574;28;119421;-85
2023/05/12 01:45:02;;;;;;;;;;;14.50;96.90;;;14.69;64.15;98371.63;4895261;28;118056;-86
2023/05/12 01:48:15;;;;;;;;;;;14.50;96.90;;;14.64;64.34;98369.09;4912070;28;124907;-86
2023/05/12 01:51:07;;;;;;;;;;;15.60;97.50;;;14.64;64.45;98380.22;4856274;28;124653;-86
2023/05/12 01:53:59;;;;;;;;;;;14.50;97.10;;;14.62;64.46;98368.66;4869785;28;121359;-87
2023/05/12 01:56:47;;;;;;;;;;;14.40;97.10;;;14.66;64.41;98375.94;4844445;28;118250;-86
2023/05/12 02:00:00;;;;;;;;;;;14.50;97.20;;;14.70;64.69;98378.84;4856539;28;123527;-86
2023/05/12 02:03:14;;;;;;;;;;;14.40;97.10;;;14.74;64.22;98374.97;4869893;28;123067;-86
2023/05/12 02:06:05;;;;;;;;;;;14.50;97.20;;;14.76;64.32;98378.22;4852682;28;119689;-86
2023/05/12 02:12:01;;;;;;;;;;;14.50;97.20;;;14.81;64.29;98385.53;4840881;29;127310;-85
2023/05/12 02:15:21;;;;;;;;;;;14.50;97.20;;;14.79;64.19;98369.19;4854118;29;124024;-86
2023/05/12 02:17:57;;;;;;;;;;;14.50;97.20;;;14.78;64.31;98364.78;4833380;29;119255;-86
2023/05/12 02:20:31;;;;;;;;;;;14.60;97.30;;;14.77;64.46;98373.47;4841228;29;119446;-86
2023/05/12 02:23:38;;;;;;;;;;;14.50;97.20;;;14.74;64.44;98369.41;4831777;29;123988;-86
2023/05/12 02:26:18;;;;;;;;;;;14.50;97.20;;;14.74;64.69;98365.84;4815849;29;123888;-86
2023/05/12 02:29:34;;;;;;;;;;;14.50;97.30;;;14.69;64.68;98369.66;4834067;29;118564;-86
2023/05/12 02:32:52;;;;;;;;;;;14.50;97.30;;;14.69;64.65;98371.63;4772575;29;119057;-84
2023/05/12 02:39:18;;;;;;;;;;;14.40;97.50;;;14.55;65.00;98366.44;4741879;29;118881;-86
2023/05/12 02:41:47;;;;;;;;;;;14.30;97.40;;;14.53;65.36;98372.38;4724225;29;118944;-85
2023/05/12 02:47:46;;;;;;;;;;;;;;;;;;;;;
2023/05/12 02:50:42;;;;;;;;;;;14.30;97.50;;;14.43;65.42;98364.47;4756439;29;124482;-85
2023/05/12 02:53:47;;;;;;;;;;;14.30;97.70;;;14.38;65.35;98373.03;4794234;29;119163;-85
2023/05/12 02:56:25;;;;;;;;;;;14.30;97.60;;;14.40;65.33;98361.56;4777139;29;118639;-85
2023/05/12 02:58:59;;;;;;;;;;;14.30;97.60;;;14.43;65.47;98364.47;4757488;29;124736;-85
2023/05/12 03:01:37;;;;;;;;;;;14.30;97.70;;;14.46;65.45;98363.78;4773657;29;123000;-84
2023/05/12 03:04:49;;;;;;;;;;;14.30;97.80;;;14.50;65.46;98370.25;4772818;29;120263;-86
2023/05/12 03:07:25;;;;;;;;;;;14.30;97.80;;;14.47;65.45;98375.69;4788745;29;118773;-85
2023/05/12 03:10:28;;;;;;;;;;;14.20;97.90;;;14.41;65.57;98377.91;4795966;29;124433;-85
2023/05/12 03:13:07;;;;;;;;;;;14.20;98.00;;;14.45;65.88;98372.44;4746808;29;122725;-85
2023/05/12 03:15:42;;;;;;;;;;;14.20;98.00;;;14.48;65.69;98380.91;4744639;29;119655;-85
2023/05/12 03:18:08;;;;;;;;;;;12.90;97.40;;;14.48;65.60;98378.13;4760412;29;118550;-86
2023/05/12 03:20:38;;;;;;;;;;;14.20;97.90;;;14.51;65.62;98377.44;4757640;29;124220;-85
2023/05/12 03:23:29;;;;;;;;;;;14.20;98.00;;;14.45;65.61;98370.47;4758857;29;123521;-85
2023/05/12 03:26:23;;;;;;;;;;;14.20;98.00;;;14.47;65.72;98375.69;4764754;29;118485;-85
2023/05/12 03:29:23;;;;;;;;;;;14.20;98.00;;;14.35;65.63;98369.00;4757129;29;118629;-86
2023/05/12 03:31:51;;;;;;;;;;;14.20;98.00;;;14.35;65.84;98368.19;4810127;29;122523;-84
2023/05/12 03:34:26;;;;;;;;;;;14.10;98.00;;;14.39;65.90;98369.09;4801578;29;123318;-86
2023/05/12 03:37:04;;;;;;;;;;;14.20;98.10;;;14.40;65.93;98376.28;4811966;29;118329;-85
2023/05/12 03:39:46;;;;;;;;;;;14.20;98.10;;;14.42;65.76;98373.94;4790663;29;119639;-85
2023/05/12 03:42:50;;;;;;;;;;;14.20;98.20;;;14.45;65.87;98378.81;4814771;29;124162;-86
2023/05/12 03:45:25;;;;;;;;;;;14.20;98.20;;;14.49;65.75;98367.81;4814506;29;124114;-84
2023/05/12 03:48:17;;;;;;;;;;;14.20;98.20;;;14.51;65.81;98371.06;4813812;29;120988;-87
2023/05/12 03:51:17;;;;;;;;;;;14.30;98.20;;;14.49;65.60;98378.94;4817922;29;117830;-87
2023/05/12 03:53:50;;;;;;;;;;;14.20;98.20;;;14.46;66.05;98368.53;4807762;29;123859;-85
2023/05/12 03:56:38;;;;;;;;;;;14.20;98.10;;;14.45;65.64;98370.47;4814791;29;123882;-87
2023/05/12 03:59:31;;;;;;;;;;;14.20;98.10;;;14.42;65.68;98368.38;4848667;28;120427;-87
2023/05/12 04:02:30;;;;;;;;;;;14.20;98.20;;;14.34;65.78;98366.53;4906126;28;119447;-86
2023/05/12 04:05:07;;;;;;;;;;;14.20;98.10;;;14.35;65.88;98362.63;4879424;28;123455;-86
2023/05/12 04:08:14;;;;;;;;;;;14.20;98.20;;;14.33;65.74;98359.38;4888314;28;124429;-87
2023/05/12 04:11:16;;;;;;;;;;;14.10;98.20;;;14.32;65.91;98366.09;4878879;28;117761;-86
2023/05/12 04:13:52;;;;;;;;;;;14.10;98.20;;;14.23;66.24;98368.97;4892286;28;118668;-84
2023/05/12 04:20:34;;;;;;;;;;;14.00;98.30;;;14.07;66.86;98376.38;4822175;29;124671;-85
2023/05/12 04:23:02;;;;;;;;;;;13.90;98.50;;;14.04;66.71;98366.78;4804427;29;118973;-86
2023/05/12 04:26:12;;;;;;;;;;;13.90;98.50;;;13.97;66.82;98369.34;4810963;29;118580;-85
2023/05/12 04:28:59;;;;;;;;;;;13.80;98.40;;;13.92;67.06;98372.34;4810106;29;124601;-84
2023/05/12 04:31:26;;;;;;;;;;;13.80;98.50;;;13.88;67.36;98382.50;4796092;29;124112;-87
2023/05/12 04:34:32;;;;;;;;;;;13.80;98.70;;;13.84;67.23;98382.38;4815780;29;119160;-87
2023/05/12 04:37:09;;;;;;;;;;;13.70;98.70;;;13.86;67.25;98379.25;4817098;29;120775;-85
2023/05/12 04:39:43;;;;;;;;;;;13.70;98.70;;;13.91;67.06;98388.16;4779787;29;123748;-86
2023/05/12 04:42:10;;;;;;;;;;;13.70;98.70;;;13.95;67.15;98382.75;4817120;29;123100;-86
2023/05/12 04:45:04;;;;;;;;;;;13.80;98.80;;;13.95;67.10;98387.50;4835740;29;119627;-86
2023/05/12 04:47:33;;;;;;;;;;;13.60;98.90;;;13.94;67.25;98386.66;4856999;29;118782;-86
2023/05/12 04:50:09;;;;;;;;;;;13.70;98.90;;;13.98;67.13;98393.16;4829526;29;124099;-85
2023/05/12 04:52:48;;;;;;;;;;;13.70;98.90;;;14.04;67.10;98396.53;4854317;29;124895;-86
2023/05/12 04:55:24;;;;;;;;;;;13.80;98.90;;;14.11;67.05;98394.81;4910035;28;120468;-87
2023/05/12 04:58:28;;;;;;;;;;;13.80;99.00;;;14.13;66.81;98398.06;4904507;28;118148;-86
2023/05/12 05:01:02;;;;;;;;;;;13.90;98.90;;;14.19;66.87;98392.28;4896080;28;123812;-85
2023/05/12 05:03:41;;;;;;;;;;;13.80;98.90;;;14.14;67.09;98399.66;4911412;28;123927;-85
2023/05/12 05:06:20;;;;;;;;;;;12.10;98.10;;;14.15;66.67;98395.72;4906302;28;118392;-85
2023/05/12 05:08:56;;;;;;;;;;;13.90;98.80;;;14.15;67.12;98398.50;4904624;28;118757;-85
2023/05/12 05:11:54;;;;;;;;;;;13.80;98.90;;;14.15;66.77;98394.91;4902981;28;125014;-85
2023/05/12 05:14:39;;;;;;;;;;;13.80;98.90;;;14.13;66.72;98395.28;4909375;28;123799;-84
2023/05/12 05:17:06;;;;;;;;;;;13.90;99.00;;;14.07;66.87;98402.19;4912656;28;119470;-86
2023/05/12 05:20:10;;;;;;;;;;;13.80;98.90;;;14.03;67.07;98400.47;4908886;28;118118;-86
2023/05/12 05:23:06;;;;;;;;;;;13.80;99.00;;;14.04;67.08;98402.88;4873538;28;124898;-85
2023/05/12 05:25:44;;;;;;;;;;;13.80;99.00;;;14.12;67.06;98409.50;4869548;28;122315;-85
2023/05/12 05:28:23;;;;;;;;;;;13.80;99.00;;;14.17;67.25;98406.50;4880406;28;119189;-86
2023/05/12 05:31:17;;;;;;;;;;;13.80;99.00;;;14.22;66.75;98411.81;4889832;28;119193;-86
2023/05/12 05:33:54;;;;;;;;;;;13.90;99.00;;;14.23;66.91;98412.63;4870319;28;124124;-86
2023/05/12 05:36:21;;;;;;;;;;;13.90;99.00;;;14.27;66.55;98410.78;4873506;28;123242;-85
2023/05/12 05:39:09;;;;;;;;;;;14.00;99.00;;;14.32;66.63;98416.13;4889440;28;120102;-85
2023/05/12 05:41:38;;;;;;;;;;;14.00;99.00;;;14.36;66.45;98415.06;4893312;28;117864;-87
2023/05/12 05:44:04;;;;;;;;;;;14.00;98.90;;;14.41;66.50;98421.56;4860941;28;122778;-85
2023/05/12 05:46:31;;;;;;;;;;;14.10;98.90;;;14.46;66.26;98422.16;4892441;28;123618;-86
2023/05/12 05:49:09;;;;;;;;;;;14.20;98.90;;;14.51;66.34;98413.56;4891273;28;120581;-86
2023/05/12 05:51:38;;;;;;;;;;;14.20;98.90;;;14.54;65.94;98414.88;4890147;28;119643;-88
2023/05/12 05:54:04;;;;;;;;;;;14.20;98.80;;;14.53;65.97;98416.84;4886798;28;124408;-88
2023/05/12 05:56:44;;;;;;;;;;;14.10;98.70;;;14.56;66.02;98418.94;4880587;28;123951;-87
2023/05/12 06:02:58;;;;;;;;;;;14.30;98.70;;;14.61;65.77;98417.88;4892298;28;118852;-86
2023/05/12 06:05:26;;;;;;;;;;;14.30;98.60;;;14.67;65.60;98421.22;4919868;28;123380;-87
2023/05/12 06:08:14;;;;;;;;;;;14.30;98.60;;;14.70;65.50;98424.13;4907833;28;123130;-86
2023/05/12 06:10:50;;;;;;;;;;;14.30;98.50;;;14.75;65.23;98420.31;4903780;28;119779;-88
2023/05/12 06:13:16;;;;;;;;;;;14.40;98.50;;;14.73;65.20;98425.41;4908269;28;118725;-86
2023/05/12 06:15:54;;;;;;;;;;;14.40;98.30;;;14.74;64.89;98421.47;4913608;28;124233;-87
2023/05/12 06:18:29;;;;;;;;;;;14.40;98.30;;;14.72;64.97;98424.59;4918400;28;123441;-84
2023/05/12 06:21:23;;;;;;;;;;;14.40;98.20;;;14.70;64.89;98435.25;4905728;28;119012;-87
2023/05/12 06:27:14;;;;;;;;;;;14.40;98.10;;;14.76;64.88;98430.28;4904469;28;124673;-87
2023/05/12 06:29:41;;;;;;;;;;;14.50;98.10;;;14.80;64.78;98433.97;4895302;28;124109;-86
2023/05/12 06:32:15;;;;;;;;;;;14.50;98.10;;;14.84;64.74;98434.88;4899725;28;120624;-87
2023/05/12 06:34:43;;;;;;;;;;;14.50;98.00;;;14.90;64.71;98433.47;4898756;28;118717;-85
2023/05/12 06:37:10;;;;;;;;;;;14.60;98.10;;;14.95;64.35;98436.03;4890699;28;123969;-85
2023/05/12 06:39:38;;;;;;;;;;;14.60;98.00;;;15.01;64.25;98429.06;4908785;28;123829;-86
2023/05/12 06:42:05;;;;;;;;;;;14.60;98.00;;;15.07;63.86;98439.94;4905873;28;120502;-84
2023/05/12 06:44:39;;;;;;;;;;;14.70;97.90;;;15.07;63.79;98429.66;4894300;28;120173;-85
2023/05/12 06:47:08;;;;;;;;;;;14.70;97.70;;;15.08;63.56;98422.09;4910224;28;124265;-87
2023/05/12 06:49:43;;;;;;;;;;;14.70;97.70;;;15.12;63.42;98439.69;4907496;28;123251;-86
2023/05/12 06:52:09;;;;;;;;;;;14.70;97.50;;;15.10;63.05;98433.66;4897772;28;119402;-86
2023/05/12 06:54:38;;;;;;;;;;;14.70;97.40;;;15.12;63.21;98429.38;4906755;28;118625;-86
2023/05/12 06:57:05;;;;;;;;;;;14.70;97.40;;;15.16;63.19;98440.63;4893734;28;124006;-87
2023/05/12 06:59:31;;;;;;;;;;;14.80;97.40;;;15.18;63.33;98438.31;4898446;28;123840;-87
2023/05/12 07:02:02;;;;;;;;;;;14.80;97.40;;;15.25;63.05;98435.72;4909909;28;118772;-88
2023/05/12 07:04:28;;;;;;;;;;;14.90;97.40;;;15.31;63.03;98436.28;4893213;28;119200;-85
2023/05/12 07:06:55;;;;;;;;;;;14.90;97.30;;;15.36;62.82;98442.41;4899103;28;123419;-85
2023/05/12 07:09:21;;;;;;;;;;;14.90;97.60;;;15.42;62.61;98435.44;4895873;28;123841;-82
2023/05/12 07:11:50;;;;;;;;;;;15.00;97.30;;;15.45;62.50;98433.94;4902011;28;119508;-87
2023/05/12 07:14:17;;;;;;;;;;;15.00;97.10;;;15.44;62.09;98435.09;4910154;28;118770;-87
2023/05/12 07:16:43;;;;;;;;;;;16.00;97.40;;;15.42;62.39;98427.09;4906850;28;124246;-88
2023/05/12 07:19:17;;;;;;;;;;;15.00;97.00;;;15.43;62.55;98434.28;4906115;28;123816;-88
2023/05/12 07:21:43;;;;;;;;;;;15.00;97.10;;;15.45;62.56;98433.94;4892709;28;118353;-86
2023/05/12 07:24:16;;;;;;;;;;;15.00;97.10;;;15.43;61.79;98433.47;4898198;28;118094;-88
2023/05/12 07:26:43;;;;;;;;;;;15.00;96.80;;;15.44;61.97;98421.97;4905696;28;124261;-88
2023/05/12 07:29:09;;;;;;;;;;;15.10;96.90;;;15.53;61.93;98421.00;4904080;28;124070;-86
2023/05/12 07:31:39;;;;;;;;;;;15.10;96.80;;;15.57;61.83;98421.94;4894752;28;120979;-86
2023/05/12 07:34:06;;;;;;;;;;;15.10;96.70;;;15.59;61.55;98439.09;4919691;28;118785;-87
2023/05/12 07:36:32;;;;;;;;;;;15.20;96.70;;;15.62;61.50;98424.47;4908152;28;124072;-87
2023/05/12 07:39:01;;;;;;;;;;;15.20;96.70;;;15.67;61.64;98427.78;4883866;28;122498;-84
2023/05/12 07:41:28;;;;;;;;;;;15.30;96.70;;;15.75;60.98;98428.84;4902008;28;119916;-87
2023/05/12 07:43:54;;;;;;;;;;;15.30;96.50;;;15.77;60.21;98432.09;4901270;28;118771;-88
2023/05/12 07:46:20;;;;;;;;;;;15.30;96.10;;;15.77;59.98;98425.69;4897763;28;124701;-87
2023/05/12 07:48:50;;;;;;;;;;;15.40;95.90;;;15.76;59.94;98419.31;4910391;28;123977;-86
2023/05/12 07:51:16;;;;;;;;;;;15.80;96.00;;;15.78;60.02;98433.69;4907726;28;119243;-89
2023/05/12 07:53:42;;;;;;;;;;;15.40;95.80;;;15.81;59.85;98427.41;4905492;28;118316;-87
2023/05/12 07:56:18;;;;;;;;;;;15.30;95.60;;;15.85;59.60;98419.97;4906124;28;124171;-87
2023/05/12 07:58:50;;;;;;;;;;;15.40;95.60;;;15.86;59.36;98429.94;4910094;28;124271;-84
2023/05/12 08:01:17;;;;;;;;;;;15.50;95.60;;;15.96;59.41;98422.22;4907622;28;119287;-87
2023/05/12 08:03:43;;;;;;;;;;;15.50;95.60;;;16.05;59.44;98422.88;4895796;28;118840;-86
2023/05/12 08:06:18;;;;;;;;;;;15.60;95.60;;;16.15;59.13;98421.50;4902170;28;124103;-88
2023/05/12 08:08:46;;;;;;;;;;;15.70;95.50;;;16.20;58.89;98430.44;4905052;28;124168;-87
2023/05/12 08:11:15;;;;;;;;;;;15.70;95.40;;;16.24;59.06;98428.53;4905949;28;120019;-87
2023/05/12 08:13:43;;;;;;;;;;;15.70;95.40;;;16.28;58.32;98425.81;4908270;28;117828;-87
2023/05/12 08:16:19;;;;;;;;;;;15.80;95.20;;;16.35;58.64;98424.03;4909059;28;124441;-87
2023/05/12 08:18:45;;;;;;;;;;;15.90;95.30;;;16.40;58.36;98424.94;4894920;28;124053;-87
2023/05/12 08:21:15;;;;;;;;;;;15.90;95.20;;;16.43;58.25;98424.22;4898909;28;121118;-85
2023/05/12 08:23:43;;;;;;;;;;;15.90;95.10;;;16.43;57.85;98425.03;4897454;28;119874;-87
2023/05/12 08:26:10;;;;;;;;;;;15.90;94.80;;;16.44;57.76;98425.81;4901509;28;123580;-88
2023/05/12 08:28:38;;;;;;;;;;;15.90;94.70;;;16.50;57.68;98424.41;4891840;28;123499;-88
2023/05/12 08:31:04;;;;;;;;;;;16.00;94.60;;;16.54;57.70;98420.50;4915859;28;119460;-85
2023/05/12 08:33:33;;;;;;;;;;;16.10;94.70;;;16.60;57.59;98420.25;4890776;28;119029;-86
2023/05/12 08:36:03;;;;;;;;;;;16.10;94.60;;;16.63;56.81;98425.09;4895263;28;124565;-87
2023/05/12 08:38:33;;;;;;;;;;;16.10;94.20;;;16.62;56.84;98424.28;4906711;28;123875;-84
2023/05/12 08:41:18;;;;;;;;;;;15.90;94.00;;;16.73;56.98;98422.56;4905137;28;119535;-86
2023/05/12 08:43:55;;;;;;;;;;;16.20;94.30;;;16.89;56.40;98418.97;4896758;28;119096;-82
2023/05/12 08:46:31;;;;;;;;;;;16.30;94.20;;;16.96;56.18;98419.13;4901434;28;124203;-85
2023/05/12 08:49:04;;;;;;;;;;;16.40;94.00;;;17.02;55.80;98423.25;4898533;28;123988;-85
2023/05/12 08:51:38;;;;;;;;;;;16.50;94.00;;;17.09;56.02;98423.41;4899866;28;119289;-83
2023/05/12 08:54:07;;;;;;;;;;;16.60;94.00;;;17.15;55.86;98427.53;4907089;28;118725;-85
2023/05/12 08:56:38;;;;;;;;;;;16.60;93.80;;;17.19;55.59;98428.44;4893325;28;123867;-87
2023/05/12 08:59:08;;;;;;;;;;;16.70;93.70;;;17.23;55.30;98429.28;4903915;28;123823;-84
2023/05/12 09:01:41;;;;;;;;;;;16.80;93.60;;;17.26;55.51;98427.75;4909069;28;119629;-85
2023/05/12 09:04:08;;;;;;;;;;;16.80;93.50;;;17.28;55.42;98430.19;4918308;28;119165;-84
2023/05/12 09:06:41;;;;;;;;;;;16.90;93.40;;;17.28;54.85;98431.00;4913415;28;124857;-83
2023/05/12 09:09:08;;;;;;;;;;;16.90;93.10;;;17.29;54.79;98415.06;4909723;28;123390;-84
2023/05/12 09:11:41;;;;;;;;;;;16.90;93.00;;;17.32;54.33;98428.28;4915662;28;120375;-87
2023/05/12 09:14:28;;;;;;;;;;;16.90;92.80;;;17.33;54.32;98424.28;4902458;28;118740;-84
2023/05/12 09:17:02;;;;;;;;;;;16.90;92.90;;;17.36;53.80;98427.19;4900482;28;124705;-84
2023/05/12 09:19:28;;;;;;;;;;;16.90;92.60;;;17.37;53.96;98426.00;4907264;28;122874;-84
2023/05/12 09:22:04;;;;;;;;;;;16.90;92.60;;;17.44;53.75;98426.16;4906231;28;120568;-86
2023/05/12 09:24:40;;;;;;;;;;;18.70;93.20;;;17.44;53.90;98428.94;4922752;28;118391;-86
2023/05/12 09:27:09;;;;;;;;;;;17.00;92.50;;;17.49;54.12;98421.44;4892317;28;124814;-86
2023/05/12 09:29:52;;;;;;;;;;;17.10;92.60;;;17.52;53.57;98415.94;4918456;28;124167;-85
2023/05/12 09:32:39;;;;;;;;;;;17.10;92.50;;;17.49;53.36;98422.28;4882525;28;118827;-87
2023/05/12 09:35:09;;;;;;;;;;;17.00;92.10;;;17.49;53.21;98422.28;4906035;28;118762;-87
2023/05/12 09:37:39;;;;;;;;;;;17.10;92.10;;;17.49;53.17;98422.28;4908705;28;124547;-87
2023/05/12 09:40:06;;;;;;;;;;;17.10;92.10;;;17.51;53.11;98422.69;4908588;28;123945;-86
2023/05/12 09:42:34;;;;;;;;;;;17.10;91.90;;;17.49;53.36;98421.44;4899178;28;120321;-84
2023/05/12 09:45:03;;;;;;;;;;;17.10;91.90;;;17.53;53.61;98425.13;4911398;28;118423;-85
2023/05/12 09:47:35;;;;;;;;;;;17.20;92.10;;;17.61;53.52;98419.31;4894965;28;123803;-86
2023/05/12 09:50:05;;;;;;;;;;;17.20;92.20;;;17.72;53.50;98418.72;4898446;28;124136;-86
2023/05/12 09:52:38;;;;;;;;;;;17.30;92.20;;;17.79;53.43;98422.50;4885328;28;119898;-85
2023/05/12 09:55:15;;;;;;;;;;;17.30;92.10;;;17.88;53.24;98425.03;4901443;28;118703;-88
2023/05/12 09:57:48;;;;;;;;;;;17.40;92.20;;;17.93;53.23;98426.72;4889756;28;124120;-87
2023/05/12 10:00:23;;;;;;;;;;;17.40;92.20;;;17.97;52.70;98425.59;4872621;28;124020;-87
2023/05/12 10:02:50;;;;;;;;;;;17.50;92.00;;;17.95;52.78;98424.38;4882164;28;120613;-86
2023/05/12 10:05:23;;;;;;;;;;;17.40;91.90;;;17.97;52.66;98428.41;4890493;28;119682;-85
2023/05/12 10:07:50;;;;;;;;;;;17.50;91.90;;;18.02;52.67;98418.91;4889594;28;126870;-85
2023/05/12 10:10:23;;;;;;;;;;;17.60;91.90;;;18.06;52.37;98428.19;4876683;28;123857;-86
2023/05/12 10:12:50;;;;;;;;;;;17.60;91.60;;;18.04;52.04;98428.53;4888336;28;119410;-85
2023/05/12 10:15:20;;;;;;;;;;;17.60;91.50;;;18.03;51.98;98432.53;4885336;28;119230;-85
2023/05/12 10:17:47;;;;;;;;;;;17.60;91.30;;;18.01;51.97;98426.50;4866547;28;124887;-87
2023/05/12 10:20:14;;;;;;;;;;;17.60;91.30;;;17.97;51.85;98419.22;4882881;28;123195;-85
2023/05/12 10:22:45;;;;;;;;;;;17.60;91.10;;;17.95;51.98;98425.19;4888850;28;120162;-83
2023/05/12 10:25:11;;;;;;;;;;;17.60;91.20;;;17.94;51.97;98422.75;4910588;28;118117;-86
2023/05/12 10:27:38;;;;;;;;;;;17.60;91.20;;;17.95;52.20;98425.19;4901739;28;124609;-87
2023/05/12 10:30:09;;;;;;;;;;;17.40;91.20;;;18.00;52.16;98427.69;4906680;28;124008;-85
2023/05/12 10:32:37;;;;;;;;;;;17.60;91.30;;;18.01;52.08;98423.69;4908226;28;118846;-85
2023/05/12 10:35:11;;;;;;;;;;;17.60;91.30;;;17.97;52.28;98422.81;4908027;28;118757;-87
2023/05/12 10:37:45;;;;;;;;;;;17.50;91.40;;;17.98;52.32;98427.25;4903260;28;124700;-87
2023/05/12 10:40:22;;;;;;;;;;;17.50;91.50;;;18.02;52.55;98427.28;4910670;28;124352;-85
2023/05/12 10:42:57;;;;;;;;;;;17.50;91.60;;;18.01;52.14;98418.09;4898033;28;119312;-85
2023/05/12 10:45:24;;;;;;;;;;;17.50;91.40;;;18.03;52.14;98415.75;4900785;28;118483;-89
2023/05/12 10:47:57;;;;;;;;;;;17.60;91.50;;;18.07;52.27;98424.19;4910232;28;123323;-88
2023/05/12 10:50:30;;;;;;;;;;;17.60;91.40;;;18.09;52.39;98425.44;4902671;28;123286;-88
2023/05/12 10:52:57;;;;;;;;;;;17.70;91.50;;;18.14;52.50;98429.13;4898845;28;121055;-87
2023/05/12 10:55:36;;;;;;;;;;;18.60;91.90;;;18.15;52.74;98427.94;4901361;28;120326;-89
2023/05/12 10:58:10;;;;;;;;;;;17.70;91.60;;;18.16;53.07;98426.75;4893562;28;123749;-87
2023/05/12 11:00:49;;;;;;;;;;;17.80;91.80;;;18.19;53.44;98429.63;4904183;28;124008;-86
2023/05/12 11:03:24;;;;;;;;;;;17.80;91.90;;;18.22;53.34;98420.47;4903952;28;118869;-87
2023/05/12 11:06:01;;;;;;;;;;;17.90;92.00;;;18.24;53.08;98434.91;4903757;28;118372;-89
2023/05/12 11:08:33;;;;;;;;;;;17.90;91.80;;;18.24;52.77;98428.47;4903220;28;124517;-85
2023/05/12 11:11:00;;;;;;;;;;;17.90;91.70;;;18.20;52.55;98424.81;4904711;28;123981;-89
2023/05/12 11:13:34;;;;;;;;;;;17.90;91.60;;;18.17;52.91;98433.97;4892326;28;118739;-88
2023/05/12 11:16:00;;;;;;;;;;;17.80;91.70;;;18.13;53.35;98433.88;4895290;28;118757;-87
2023/05/12 11:18:33;;;;;;;;;;;17.70;91.80;;;18.03;53.43;98443.72;4902670;28;123620;-87
2023/05/12 11:21:08;;;;;;;;;;;17.70;91.90;;;18.00;53.69;98443.63;4907184;28;123864;-88
2023/05/12 11:23:34;;;;;;;;;;;17.60;92.00;;;17.99;53.73;98444.81;4906915;28;119722;-87
2023/05/12 11:26:03;;;;;;;;;;;17.60;92.10;;;17.93;53.64;98438.72;4907221;28;118891;-88
2023/05/12 11:28:45;;;;;;;;;;;16.50;91.50;;;17.89;53.59;98446.22;4902539;28;123962;-86
2023/05/12 11:31:21;;;;;;;;;;;17.60;92.00;;;17.82;54.33;98451.69;4904338;28;123849;-86
2023/05/12 11:33:47;;;;;;;;;;;17.50;92.20;;;17.78;54.75;98447.97;4900165;28;119529;-87
2023/05/12 11:36:20;;;;;;;;;;;17.40;92.50;;;17.76;55.50;98448.34;4904851;28;119159;-86
2023/05/12 11:38:50;;;;;;;;;;;17.40;92.90;;;17.73;56.13;98446.28;4906300;28;123350;-88
2023/05/12 11:41:23;;;;;;;;;;;17.40;93.20;;;17.72;56.88;98455.84;4908566;28;123540;-87
2023/05/12 11:43:50;;;;;;;;;;;17.30;93.80;;;17.64;57.49;98456.88;4906247;28;120386;-88
2023/05/12 11:46:35;;;;;;;;;;;16.40;93.80;;;17.57;57.50;98459.50;4906927;28;119750;-87
2023/05/12 11:49:02;;;;;;;;;;;17.30;94.10;;;17.60;58.02;98458.81;4907510;28;123961;-86
2023/05/12 11:51:32;;;;;;;;;;;17.30;94.20;;;17.64;57.96;98449.28;4903109;28;123514;-86
2023/05/12 11:53:58;;;;;;;;;;;17.40;94.30;;;17.66;57.82;98455.34;4892059;28;119500;-86
2023/05/12 11:56:32;;;;;;;;;;;17.40;94.30;;;17.67;57.49;98458.94;4915917;28;118946;-84
2023/05/12 11:58:58;;;;;;;;;;;17.30;94.20;;;17.67;57.58;98454.16;4888870;28;124363;-86
2023/05/12 12:01:24;;;;;;;;;;;17.30;94.10;;;17.67;57.24;98459.72;4895168;28;124284;-85
2023/05/12 12:03:55;;;;;;;;;;;17.30;94.10;;;17.67;57.37;98470.09;4873582;28;119993;-88
2023/05/12 12:06:21;;;;;;;;;;;17.30;94.10;;;17.70;57.28;98462.97;4912799;28;118339;-86
2023/05/12 12:08:55;;;;;;;;;;;17.40;94.10;;;17.73;57.65;98465.84;4884155;28;124901;-84
2023/05/12 12:11:25;;;;;;;;;;;17.40;94.30;;;17.77;57.69;98471.50;4917261;28;122403;-87